Terminal Aerodrome Forecast
Issued by NWS Omaha/Valley, NE

Home | Current Version | Previous Version | Text Only | Print | Product List | Glossary On
Versions: 1 2 3 4 5 6 7 8 9 10 11 12 13 14 15 16 17 18 19 20 21 22
000
FTUS43 KOAX 250558 AAA
TAFLNK
TAF AMD
KLNK 250558Z 2506/2606 14012KT P6SM -SHRA BKN060
      TEMPO 2506/2508 VRB20G30KT 5SM -TSRA BKN020CB
     FM250800 15007KT P6SM OVC040
      TEMPO 2510/2513 4SM -TSRA OVC020CB
     FM251400 16008KT P6SM BKN015
     FM252100 17010KT P6SM OVC050=

USA.gov is the U.S. government's official web portal to all federal, state and local government web resources and services.